Time;durP1;ratioP1;P1;durP2;ratioP2;P2;SDS_P1;SDS_P2;PMS_P1;PMS_P2;Temp;Humidity;BMP_temperature;BMP_pressure;BME280_temperature;BME280_humidity;BME280_pressure;Samples;Min_cycle;Max_cycle;Signal;HPM_P1;HPM_P2
2022/09/10 00:01:25;;;;;;;3.80;1.95;;;17.90;99.90;;;;;;4838250;29;20045;-82
2022/09/10 00:03:53;;;;;;;3.33;2.42;;;17.80;99.90;;;;;;4838676;29;20038;-82
2022/09/10 00:06:20;;;;;;;4.70;1.80;;;17.60;99.90;;;;;;4839092;29;20034;-82
2022/09/10 00:08:46;;;;;;;2.17;1.23;;;17.80;99.90;;;;;;4837931;29;20120;-82
2022/09/10 00:11:13;;;;;;;9.10;2.90;;;17.80;99.90;;;;;;4838338;29;20026;-82
2022/09/10 00:13:40;;;;;;;11.73;2.70;;;17.80;99.90;;;;;;4838189;29;20034;-82
2022/09/10 00:16:12;;;;;;;3.75;1.90;;;17.80;99.90;;;;;;4822506;29;20111;-82
2022/09/10 00:18:39;;;;;;;3.78;1.75;;;17.80;99.90;;;;;;4838042;29;20061;-82
2022/09/10 00:21:07;;;;;;;1.73;1.48;;;17.80;99.90;;;;;;4839133;29;20022;-82
2022/09/10 00:23:33;;;;;;;11.23;2.50;;;17.80;99.90;;;;;;4837861;29;20034;-82
2022/09/10 00:25:59;;;;;;;3.83;2.35;;;17.80;99.90;;;;;;4837292;29;20101;-82
2022/09/10 00:28:27;;;;;;;3.50;1.58;;;17.80;99.90;;;;;;4838765;29;20030;-82
2022/09/10 00:30:54;;;;;;;3.13;1.80;;;17.80;99.90;;;;;;4838837;29;20391;-82
2022/09/10 00:33:22;;;;;;;2.60;1.92;;;17.80;99.90;;;;;;4837772;29;20038;-82
2022/09/10 00:35:49;;;;;;;5.78;1.77;;;17.80;99.90;;;;;;4837640;29;20122;-82
2022/09/10 00:38:18;;;;;;;9.50;2.03;;;17.80;99.90;;;;;;4837551;29;20038;-83
2022/09/10 00:40:45;;;;;;;6.67;3.17;;;17.70;99.90;;;;;;4837486;29;20045;-82
2022/09/10 00:43:14;;;;;;;10.40;2.13;;;17.70;99.90;;;;;;4837752;29;20058;-82
2022/09/10 00:45:42;;;;;;;4.35;3.03;;;17.70;99.90;;;;;;4837684;29;20042;-82
2022/09/10 00:48:26;;;;;;;2.03;1.83;;;17.70;99.90;;;;;;4837176;29;20067;-82
2022/09/10 00:50:53;;;;;;;2.25;1.65;;;17.70;99.90;;;;;;4837444;29;20384;-82
2022/09/10 00:53:23;;;;;;;11.10;2.97;;;17.70;99.90;;;;;;4839026;29;20098;-82
2022/09/10 00:55:53;;;;;;;5.50;2.90;;;17.70;99.90;;;;;;4837315;29;20120;-82
2022/09/10 00:58:22;;;;;;;3.03;2.83;;;17.70;99.90;;;;;;4836054;29;20037;-82
2022/09/10 01:00:52;;;;;;;6.28;2.10;;;17.70;99.90;;;;;;4838716;29;20030;-82
2022/09/10 01:03:18;;;;;;;3.95;1.63;;;17.70;99.90;;;;;;4837249;29;20031;-82
2022/09/10 01:05:46;;;;;;;4.70;2.42;;;17.70;99.90;;;;;;4837083;29;20148;-82
2022/09/10 01:08:14;;;;;;;7.50;2.80;;;17.70;99.90;;;;;;4838881;29;20041;-81
2022/09/10 01:11:17;;;;;;;3.95;2.30;;;17.70;99.90;;;;;;4837712;29;20046;-82
2022/09/10 01:13:52;;;;;;;4.13;1.90;;;17.70;99.90;;;;;;4822486;29;20099;-82
2022/09/10 01:16:33;;;;;;;3.78;2.38;;;17.70;99.90;;;;;;4836853;29;20050;-82
2022/09/10 01:19:24;;;;;;;4.28;1.85;;;17.70;99.90;;;;;;4822271;29;20050;-82
2022/09/10 01:22:05;;;;;;;6.03;2.70;;;17.70;99.90;;;;;;4836843;29;20031;-82
2022/09/10 01:25:06;;;;;;;1.90;1.63;;;17.70;99.90;;;;;;4836569;29;20034;-82
2022/09/10 01:27:53;;;;;;;4.47;2.13;;;17.70;99.90;;;;;;4836704;29;20035;-82
2022/09/10 01:30:26;;;;;;;2.08;1.85;;;17.70;99.90;;;;;;4836950;29;20059;-82
2022/09/10 01:33:21;;;;;;;2.42;1.80;;;17.70;99.90;;;;;;4837309;29;20384;-82
2022/09/10 01:35:50;;;;;;;4.72;2.22;;;17.70;99.90;;;;;;4836412;29;20378;-82
2022/09/10 01:38:30;;;;;;;5.47;2.28;;;17.60;99.90;;;;;;4836730;29;20030;-82
2022/09/10 01:40:57;;;;;;;3.95;2.25;;;17.60;99.90;;;;;;4837984;29;20026;-82
2022/09/10 01:43:26;;;;;;;7.78;2.55;;;17.70;99.90;;;;;;4836938;29;20034;-82
2022/09/10 01:46:27;;;;;;;8.73;2.40;;;17.60;99.90;;;;;;4822020;29;20117;-82
2022/09/10 01:48:59;;;;;;;9.82;2.72;;;17.60;99.90;;;;;;4836051;29;20062;-82
2022/09/10 01:52:03;;;;;;;7.15;2.85;;;17.60;99.90;;;;;;4836361;29;20464;-82
2022/09/10 01:54:56;;;;;;;7.43;2.60;;;17.70;99.90;;;;;;4836646;29;20034;-82
2022/09/10 01:57:43;;;;;;;7.90;2.55;;;17.70;99.90;;;;;;4825019;29;20400;-82
2022/09/10 02:00:13;;;;;;;2.17;1.98;;;17.70;99.90;;;;;;4836416;29;20506;-82
2022/09/10 02:03:05;;;;;;;5.40;1.90;;;17.70;99.90;;;;;;4837900;29;20125;-82
2022/09/10 02:05:37;;;;;;;6.45;2.97;;;17.70;99.90;;;;;;4821250;29;20026;-82
2022/09/10 02:08:31;;;;;;;4.43;2.95;;;17.60;99.90;;;;;;4830820;29;20065;-82
2022/09/10 02:11:05;;;;;;;1.90;1.77;;;17.60;99.90;;;;;;4835157;29;20049;-82
2022/09/10 02:13:34;;;;;;;6.13;3.10;;;17.60;99.90;;;;;;4836345;29;20026;-82
2022/09/10 02:16:36;;;;;;;3.22;2.40;;;17.60;99.90;;;;;;4835802;29;20050;-82
2022/09/10 02:19:04;;;;;;;6.85;2.83;;;17.60;99.90;;;;;;4836071;29;20030;-82
2022/09/10 02:21:32;;;;;;;3.40;3.05;;;17.60;99.90;;;;;;4820873;29;20208;-82
2022/09/10 02:24:05;;;;;;;5.38;2.58;;;17.60;99.90;;;;;;4820489;29;20072;-82
2022/09/10 02:26:38;;;;;;;2.17;1.98;;;17.60;99.90;;;;;;4824172;29;20038;-82
2022/09/10 02:29:07;;;;;;;7.63;3.00;;;17.60;99.90;;;;;;4836107;29;20045;-82
2022/09/10 02:31:36;;;;;;;3.83;2.50;;;17.60;99.90;;;;;;4835641;29;20381;-82
2022/09/10 02:34:02;;;;;;;8.43;2.72;;;17.60;99.90;;;;;;4837008;29;20041;-82
2022/09/10 02:36:30;;;;;;;4.03;1.77;;;17.60;99.90;;;;;;4837195;29;20026;-82
2022/09/10 02:38:57;;;;;;;5.43;1.88;;;17.60;99.90;;;;;;4835749;29;20091;-82
2022/09/10 02:41:25;;;;;;;3.25;2.22;;;17.60;99.90;;;;;;4835691;29;20042;-81
2022/09/10 02:43:53;;;;;;;7.03;3.63;;;17.60;99.90;;;;;;4835954;29;20030;-82
2022/09/10 02:46:20;;;;;;;4.60;2.03;;;17.60;99.90;;;;;;4835605;29;20450;-81
2022/09/10 02:48:46;;;;;;;4.07;2.20;;;17.60;99.90;;;;;;4835983;29;20026;-82
2022/09/10 02:51:12;;;;;;;5.25;3.70;;;17.50;99.90;;;;;;4835404;29;20042;-81
2022/09/10 02:53:39;;;;;;;3.05;2.67;;;17.50;99.90;;;;;;4820587;29;20042;-82
2022/09/10 02:56:07;;;;;;;2.83;2.60;;;17.50;99.90;;;;;;4820256;29;20034;-82
2022/09/10 02:58:37;;;;;;;3.60;2.67;;;17.50;99.90;;;;;;4835821;29;20030;-81
2022/09/10 03:01:09;;;;;;;5.75;2.65;;;17.50;99.90;;;;;;4820120;29;20026;-82
2022/09/10 03:03:36;;;;;;;5.35;2.92;;;17.20;99.90;;;;;;4835676;29;20464;-81
2022/09/10 03:06:03;;;;;;;4.43;2.60;;;17.50;99.90;;;;;;4820218;29;20045;-81
2022/09/10 03:08:30;;;;;;;4.72;2.22;;;17.50;99.90;;;;;;4836497;29;20102;-82
2022/09/10 03:10:58;;;;;;;5.32;3.33;;;17.50;99.90;;;;;;4820223;29;20045;-81
2022/09/10 03:13:28;;;;;;;3.72;2.85;;;17.50;99.90;;;;;;4835441;29;20034;-81
2022/09/10 03:15:57;;;;;;;3.03;2.83;;;17.50;99.90;;;;;;4820137;29;20046;-81
2022/09/10 03:18:24;;;;;;;6.35;2.53;;;17.50;99.90;;;;;;4835469;29;20054;-81
2022/09/10 03:20:50;;;;;;;8.80;3.25;;;17.50;99.90;;;;;;4819399;29;20022;-81
2022/09/10 03:23:17;;;;;;;3.78;2.42;;;17.50;99.90;;;;;;4834891;29;20053;-81
2022/09/10 03:25:43;;;;;;;5.65;3.55;;;17.40;99.90;;;;;;4834591;29;20060;-81
2022/09/10 03:28:09;;;;;;;8.00;3.25;;;17.50;99.90;;;;;;4835062;29;20527;-82
2022/09/10 03:30:36;;;;;;;7.75;2.83;;;17.40;99.90;;;;;;4835211;29;20408;-82
2022/09/10 03:33:03;;;;;;;5.63;2.88;;;17.50;99.90;;;;;;4835057;29;20061;-82
2022/09/10 03:35:29;;;;;;;3.30;2.33;;;17.50;99.90;;;;;;4836482;29;20046;-82
2022/09/10 03:37:55;;;;;;;8.00;2.63;;;17.40;99.90;;;;;;4820119;29;20035;-82
2022/09/10 03:40:22;;;;;;;5.43;2.95;;;17.40;99.90;;;;;;4819169;29;20035;-81
2022/09/10 03:42:47;;;;;;;5.22;3.22;;;17.40;99.90;;;;;;4835453;29;20079;-81
2022/09/10 03:45:14;;;;;;;10.73;3.75;;;17.40;99.90;;;;;;4835211;29;20026;-82
2022/09/10 03:47:42;;;;;;;3.42;2.83;;;17.40;99.90;;;;;;4819873;29;20034;-81
2022/09/10 03:50:08;;;;;;;7.45;3.00;;;17.40;99.90;;;;;;4819891;29;20030;-81
2022/09/10 03:52:35;;;;;;;6.97;3.35;;;17.40;99.90;;;;;;4834917;29;20029;-81
2022/09/10 03:55:01;;;;;;;11.20;4.88;;;17.40;99.90;;;;;;4834635;29;20058;-82
2022/09/10 03:57:27;;;;;;;9.63;4.97;;;17.40;99.90;;;;;;4835034;29;20022;-82
2022/09/10 03:59:53;;;;;;;3.28;2.97;;;17.40;99.90;;;;;;4834767;29;20038;-82
2022/09/10 04:02:19;;;;;;;5.07;3.58;;;17.40;99.90;;;;;;4834797;29;20487;-82
2022/09/10 04:04:46;;;;;;;15.40;4.00;;;17.40;99.90;;;;;;4835045;29;20034;-82
2022/09/10 04:07:13;;;;;;;5.28;3.30;;;17.40;99.90;;;;;;4834823;29;20026;-82
2022/09/10 04:09:39;;;;;;;8.52;3.47;;;17.40;99.90;;;;;;4834495;29;20050;-81
2022/09/10 04:12:05;;;;;;;8.60;3.95;;;17.40;99.90;;;;;;4834497;29;20041;-82
2022/09/10 04:14:33;;;;;;;5.00;3.50;;;17.40;99.90;;;;;;4819668;29;20381;-82
2022/09/10 04:17:00;;;;;;;8.75;3.60;;;17.40;99.90;;;;;;4836771;29;20056;-82
2022/09/10 04:19:29;;;;;;;8.82;3.45;;;17.40;99.90;;;;;;4852193;29;20046;-82
2022/09/10 04:21:56;;;;;;;4.50;3.70;;;17.40;99.90;;;;;;4840915;29;20042;-82
2022/09/10 04:24:22;;;;;;;12.65;4.53;;;17.40;99.90;;;;;;4851641;29;20030;-82
2022/09/10 04:26:49;;;;;;;6.72;3.35;;;17.40;99.90;;;;;;4836505;29;20042;-82
2022/09/10 04:29:17;;;;;;;15.52;4.05;;;17.30;99.90;;;;;;4836901;29;20080;-82
2022/09/10 04:31:45;;;;;;;6.40;4.78;;;17.40;99.90;;;;;;4851865;29;20050;-81
2022/09/10 04:34:13;;;;;;;5.78;3.78;;;17.40;99.90;;;;;;4855258;29;20038;-82
2022/09/10 04:36:39;;;;;;;4.32;2.60;;;17.40;99.90;;;;;;4839695;29;20064;-82
2022/09/10 04:39:06;;;;;;;8.63;3.58;;;17.40;99.90;;;;;;4838746;29;20532;-82
2022/09/10 04:41:32;;;;;;;4.90;4.20;;;17.30;99.90;;;;;;4809790;29;20049;-82
2022/09/10 04:43:58;;;;;;;5.18;3.75;;;17.30;99.90;;;;;;4855102;29;20038;-82
2022/09/10 04:46:24;;;;;;;4.72;2.75;;;17.30;99.90;;;;;;4855422;29;20030;-82
2022/09/10 04:48:53;;;;;;;6.75;3.08;;;17.30;99.90;;;;;;4836812;29;20046;-81
2022/09/10 04:51:21;;;;;;;16.20;4.50;;;17.40;99.90;;;;;;4837582;29;20038;-82
2022/09/10 04:53:50;;;;;;;5.50;4.78;;;17.30;99.90;;;;;;4837357;29;20031;-82
2022/09/10 04:56:16;;;;;;;9.65;3.95;;;17.30;99.90;;;;;;4838590;29;20499;-82
2022/09/10 04:58:42;;;;;;;9.18;3.35;;;17.30;99.90;;;;;;4837329;29;20190;-82
2022/09/10 05:01:09;;;;;;;8.60;4.82;;;17.30;99.90;;;;;;4838336;29;20030;-81
2022/09/10 05:03:35;;;;;;;7.18;4.75;;;17.30;99.90;;;;;;4834755;29;20025;-82
2022/09/10 05:06:04;;;;;;;4.82;4.45;;;17.30;99.90;;;;;;4803295;29;20030;-82
2022/09/10 05:08:30;;;;;;;6.10;3.90;;;17.30;99.90;;;;;;4834645;29;20042;-82
2022/09/10 05:10:59;;;;;;;5.35;4.68;;;17.30;99.90;;;;;;4822330;29;20034;-82
2022/09/10 05:13:25;;;;;;;5.63;4.85;;;17.30;99.90;;;;;;4820436;29;20038;-81
2022/09/10 05:15:51;;;;;;;5.90;4.47;;;17.30;99.90;;;;;;4829608;29;20110;-82
2022/09/10 05:18:17;;;;;;;6.13;4.80;;;17.30;99.90;;;;;;4824735;29;20034;-82
2022/09/10 05:20:43;;;;;;;5.90;4.38;;;17.30;99.90;;;;;;4822058;29;20042;-82
2022/09/10 05:23:09;;;;;;;7.22;6.05;;;17.30;99.90;;;;;;4836872;29;20568;-81
2022/09/10 05:25:36;;;;;;;6.07;4.63;;;17.30;99.90;;;;;;4821898;29;20026;-81
2022/09/10 05:28:04;;;;;;;5.93;4.05;;;17.30;99.90;;;;;;4822003;29;20063;-81
2022/09/10 05:30:31;;;;;;;7.95;5.18;;;17.30;99.90;;;;;;4823196;29;20038;-82
2022/09/10 05:33:01;;;;;;;5.22;4.60;;;17.30;99.90;;;;;;4821899;29;20397;-82
2022/09/10 05:35:32;;;;;;;6.57;5.63;;;17.30;99.90;;;;;;4835730;29;20099;-82
2022/09/10 05:37:59;;;;;;;;;;;17.30;99.90;;;;;;4836797;29;20041;-82
2022/09/10 05:40:28;;;;;;;6.65;4.72;;;17.10;99.90;;;;;;4836934;29;19940;-82
2022/09/10 05:42:54;;;;;;;5.10;4.70;;;17.30;99.90;;;;;;4821605;29;20030;-82
2022/09/10 05:45:22;;;;;;;8.25;5.22;;;17.30;99.90;;;;;;4818655;29;20492;-82
2022/09/10 05:47:50;;;;;;;13.15;6.47;;;17.30;99.90;;;;;;4802788;29;20111;-82
2022/09/10 05:50:20;;;;;;;4.78;3.83;;;17.30;99.90;;;;;;4822028;29;20600;-82
2022/09/10 05:52:46;;;;;;;8.45;5.00;;;17.30;99.90;;;;;;4836248;29;20023;-82
2022/09/10 05:55:13;;;;;;;7.43;5.35;;;17.30;99.90;;;;;;4805761;29;20033;-82
2022/09/10 05:57:39;;;;;;;4.88;4.47;;;17.40;99.90;;;;;;4836738;29;20175;-82
2022/09/10 06:00:08;;;;;;;6.32;4.95;;;17.40;99.90;;;;;;4835495;29;20022;-82
2022/09/10 06:02:40;;;;;;;11.02;4.88;;;17.20;99.90;;;;;;4841066;29;20037;-81
2022/09/10 06:05:11;;;;;;;13.02;6.47;;;17.30;99.90;;;;;;4841775;29;20043;-81
2022/09/10 06:07:38;;;;;;;5.45;3.85;;;17.30;99.90;;;;;;4845562;29;20093;-81
2022/09/10 06:10:05;;;;;;;6.38;4.93;;;17.30;99.90;;;;;;4843029;29;20374;-80
2022/09/10 06:12:50;;;;;;;5.15;4.40;;;17.30;99.90;;;;;;4842757;29;20056;-81
2022/09/10 06:15:18;;;;;;;6.45;3.58;;;17.30;99.90;;;;;;4857105;29;20038;-81
2022/09/10 06:17:44;;;;;;;5.18;4.55;;;17.30;99.90;;;;;;4845244;29;20026;-81
2022/09/10 06:20:12;;;;;;;5.93;4.43;;;17.30;99.90;;;;;;4841380;29;20257;-81
2022/09/10 06:22:39;;;;;;;3.92;3.00;;;17.30;99.90;;;;;;4829629;29;20022;-81
2022/09/10 06:25:07;;;;;;;4.63;3.33;;;17.30;99.90;;;;;;4843578;29;20066;-81
2022/09/10 06:27:33;;;;;;;6.13;3.78;;;17.30;99.90;;;;;;4841605;29;20026;-81
2022/09/10 06:30:01;;;;;;;14.02;4.95;;;17.30;99.90;;;;;;4829668;29;20090;-81
2022/09/10 06:32:27;;;;;;;10.68;5.45;;;17.30;99.90;;;;;;4827703;29;20038;-81
2022/09/10 06:34:54;;;;;;;11.07;7.10;;;17.30;99.90;;;;;;4822669;29;20034;-81
2022/09/10 06:37:20;;;;;;;10.38;5.65;;;17.20;99.90;;;;;;4842953;29;20029;-81
2022/09/10 06:39:46;;;;;;;8.15;6.22;;;17.20;99.90;;;;;;4829698;29;20060;-80
2022/09/10 06:42:12;;;;;;;12.05;7.82;;;17.10;99.90;;;;;;4828534;29;20018;-81
2022/09/10 06:45:06;;;;;;;9.80;7.07;;;17.10;99.90;;;;;;4827819;29;20044;-81
2022/09/10 06:47:46;;;;;;;9.38;7.70;;;17.10;99.90;;;;;;4843135;29;20046;-81
2022/09/10 06:50:11;;;;;;;8.75;7.78;;;17.10;99.90;;;;;;4844863;29;20021;-81
2022/09/10 06:52:39;;;;;;;12.50;7.65;;;17.10;99.90;;;;;;4842990;29;20033;-80
2022/09/10 06:55:09;;;;;;;14.23;7.65;;;17.10;99.90;;;;;;4840912;29;20030;-81
2022/09/10 06:57:43;;;;;;;10.63;8.15;;;17.10;99.90;;;;;;4843395;29;21482;-80
2022/09/10 07:00:11;;;;;;;11.27;6.93;;;17.10;99.90;;;;;;4845371;29;20365;-80
2022/09/10 07:02:38;;;;;;;15.73;8.50;;;17.10;99.90;;;;;;4829427;29;20031;-81
2022/09/10 07:05:05;;;;;;;12.38;8.77;;;17.10;99.90;;;;;;4843321;29;20047;-80
2022/09/10 07:07:32;;;;;;;12.13;8.85;;;17.10;99.90;;;;;;4844975;29;20069;-81
2022/09/10 07:09:58;;;;;;;9.18;8.38;;;17.00;99.90;;;;;;4829487;29;20034;-81
2022/09/10 07:12:24;;;;;;;13.55;8.93;;;17.00;99.90;;;;;;4842882;29;20095;-80
2022/09/10 07:14:51;;;;;;;9.88;8.88;;;17.00;99.90;;;;;;4844610;29;20052;-81
2022/09/10 07:17:19;;;;;;;9.57;8.77;;;17.00;99.90;;;;;;4844584;29;20030;-81
2022/09/10 07:19:45;;;;;;;18.30;9.60;;;17.00;99.90;;;;;;4842984;29;20027;-81
2022/09/10 07:22:19;;;;;;;14.30;11.20;;;17.10;99.90;;;;;;4829426;29;20101;-82
2022/09/10 07:24:47;;;;;;;9.63;8.10;;;17.10;99.90;;;;;;4845044;29;20086;-81
2022/09/10 07:27:22;;;;;;;15.77;11.45;;;17.00;99.90;;;;;;4844969;29;20054;-81
2022/09/10 07:29:48;;;;;;;11.70;9.50;;;16.90;99.90;;;;;;4827763;29;20041;-81
2022/09/10 07:32:17;;;;;;;12.10;10.67;;;17.10;99.90;;;;;;4841830;29;20026;-80
2022/09/10 07:34:45;;;;;;;9.90;8.98;;;17.00;99.90;;;;;;4828453;29;20797;-80
2022/09/10 07:37:14;;;;;;;11.38;10.35;;;16.90;99.90;;;;;;4829646;29;20097;-80
2022/09/10 07:39:40;;;;;;;16.98;11.45;;;17.00;99.90;;;;;;4846244;29;20038;-80
2022/09/10 07:42:09;;;;;;;16.20;9.98;;;16.90;99.90;;;;;;4824421;29;20037;-80
2022/09/10 07:44:35;;;;;;;12.65;10.98;;;17.00;99.90;;;;;;4850682;29;20054;-80
2022/09/10 07:47:02;;;;;;;11.45;10.35;;;17.00;99.90;;;;;;4848755;29;20038;-80
2022/09/10 07:49:29;;;;;;;13.57;10.18;;;16.90;99.90;;;;;;4829487;29;20392;-80
2022/09/10 07:51:55;;;;;;;16.77;12.05;;;17.00;99.90;;;;;;4821843;29;20443;-80
2022/09/10 07:54:24;;;;;;;14.05;11.45;;;16.90;99.90;;;;;;4812671;29;20046;-81
2022/09/10 07:56:54;;;;;;;12.15;10.60;;;16.90;99.90;;;;;;4820047;29;20043;-82
2022/09/10 07:59:52;;;;;;;17.85;12.00;;;16.90;99.90;;;;;;4807849;29;20039;-81
2022/09/10 08:02:23;;;;;;;13.18;11.43;;;15.40;99.90;;;;;;4832064;29;20053;-81
2022/09/10 08:04:55;;;;;;;24.52;10.68;;;17.00;99.90;;;;;;4834166;29;20026;-81
2022/09/10 08:07:22;;;;;;;15.57;11.73;;;17.00;99.90;;;;;;4802052;29;20049;-81
2022/09/10 08:09:48;;;;;;;12.90;10.82;;;16.90;99.90;;;;;;4838755;29;20038;-81
2022/09/10 08:12:16;;;;;;;10.70;9.70;;;16.90;99.90;;;;;;4838106;29;20045;-81
2022/09/10 08:14:42;;;;;;;14.00;11.45;;;16.90;99.90;;;;;;4838135;29;20046;-81
2022/09/10 08:17:09;;;;;;;20.63;11.68;;;16.90;99.90;;;;;;4837428;29;20572;-81
2022/09/10 08:19:40;;;;;;;13.07;11.30;;;16.90;99.90;;;;;;4837536;29;20019;-81
2022/09/10 08:22:06;;;;;;;10.88;9.77;;;16.90;99.90;;;;;;4837927;29;20441;-81
2022/09/10 08:24:38;;;;;;;10.77;9.77;;;17.00;99.90;;;;;;4809907;29;20039;-81
2022/09/10 08:27:05;;;;;;;15.50;11.35;;;17.00;99.90;;;;;;4821281;29;20058;-82
2022/09/10 08:29:30;;;;;;;12.57;9.57;;;17.00;99.90;;;;;;4822718;29;20038;-81
2022/09/10 08:31:58;;;;;;;8.95;8.07;;;16.90;99.90;;;;;;4838041;29;20031;-81
2022/09/10 08:34:29;;;;;;;12.60;10.23;;;17.00;99.90;;;;;;4838197;29;20050;-81
2022/09/10 08:37:03;;;;;;;14.27;8.70;;;17.00;99.90;;;;;;4837703;29;20078;-81
2022/09/10 08:39:30;;;;;;;12.98;9.05;;;17.00;99.90;;;;;;4837632;29;20442;-81
2022/09/10 08:41:58;;;;;;;11.98;10.77;;;16.90;99.90;;;;;;4807483;29;20026;-81
2022/09/10 08:44:32;;;;;;;10.57;9.45;;;17.00;99.90;;;;;;4837850;29;20095;-81
2022/09/10 08:47:25;;;;;;;11.02;8.93;;;17.00;99.90;;;;;;4837446;29;20041;-81
2022/09/10 08:50:00;;;;;;;11.13;9.95;;;17.00;99.90;;;;;;4837678;29;20061;-81
2022/09/10 08:52:57;;;;;;;10.95;9.85;;;17.00;99.90;;;;;;4822820;29;20030;-82
2022/09/10 08:55:30;;;;;;;12.38;11.10;;;17.00;99.90;;;;;;4837540;29;20579;-81
2022/09/10 08:58:12;;;;;;;13.10;10.55;;;17.00;99.90;;;;;;4836262;29;20027;-81
2022/09/10 09:00:43;;;;;;;10.80;9.82;;;17.00;99.90;;;;;;4837590;29;20030;-81
2022/09/10 09:03:26;;;;;;;14.65;10.32;;;17.00;99.90;;;;;;4822933;29;20027;-81
2022/09/10 09:05:56;;;;;;;10.60;9.50;;;17.00;99.90;;;;;;4836991;29;20057;-81
2022/09/10 09:08:40;;;;;;;12.23;9.23;;;17.00;99.90;;;;;;4837584;29;20038;-81
2022/09/10 09:11:21;;;;;;;9.15;8.35;;;17.10;99.90;;;;;;4837565;29;20034;-81
2022/09/10 09:14:01;;;;;;;10.40;9.32;;;17.10;99.90;;;;;;4837502;29;20045;-81
2022/09/10 09:16:40;;;;;;;8.85;8.02;;;17.00;99.90;;;;;;4836846;29;20113;-81
2022/09/10 09:19:30;;;;;;;11.73;10.40;;;17.00;99.90;;;;;;4836200;29;20090;-81
2022/09/10 09:22:03;;;;;;;16.35;7.95;;;17.10;99.90;;;;;;4837113;29;20484;-81
2022/09/10 09:24:53;;;;;;;8.82;7.85;;;17.10;99.90;;;;;;4836991;29;20034;-82
2022/09/10 09:27:20;;;;;;;9.30;8.40;;;17.10;99.90;;;;;;4836766;29;20041;-81
2022/09/10 09:29:59;;;;;;;12.40;8.85;;;17.10;99.90;;;;;;4836969;29;20030;-81
2022/09/10 09:32:27;;;;;;;11.38;7.50;;;17.10;99.90;;;;;;4837182;29;20030;-81
2022/09/10 09:35:04;;;;;;;9.23;7.22;;;17.10;99.90;;;;;;4837153;29;20042;-81
2022/09/10 09:37:32;;;;;;;11.38;8.65;;;17.10;99.90;;;;;;4821326;29;20081;-81
2022/09/10 09:40:12;;;;;;;9.43;8.43;;;17.10;99.90;;;;;;4822027;29;20038;-81
2022/09/10 09:42:42;;;;;;;14.82;7.80;;;17.20;99.90;;;;;;4836988;29;20037;-81
2022/09/10 09:45:33;;;;;;;16.33;8.77;;;17.20;99.90;;;;;;4837078;29;20030;-82
2022/09/10 09:48:01;;;;;;;15.68;10.80;;;17.20;99.90;;;;;;4836251;29;20043;-82
2022/09/10 09:50:29;;;;;;;11.30;8.80;;;17.20;99.90;;;;;;4837126;29;20041;-81
2022/09/10 09:52:55;;;;;;;15.88;8.40;;;17.20;99.90;;;;;;4818467;29;20027;-82
2022/09/10 09:55:39;;;;;;;8.90;8.10;;;17.30;99.90;;;;;;4826601;29;20062;-81
2022/09/10 09:58:20;;;;;;;8.77;7.82;;;17.30;99.90;;;;;;4836491;29;20065;-82
2022/09/10 10:01:05;;;;;;;9.18;7.70;;;17.20;99.90;;;;;;4836813;29;20034;-81
2022/09/10 10:03:51;;;;;;;15.30;10.63;;;17.40;99.90;;;;;;4836930;29;20030;-82
2022/09/10 10:06:23;;;;;;;16.80;10.32;;;17.40;99.90;;;;;;4821440;29;20441;-82
2022/09/10 10:08:54;;;;;;;12.75;9.13;;;17.40;99.90;;;;;;4820935;29;20022;-81
2022/09/10 10:11:21;;;;;;;35.88;12.50;;;17.30;99.90;;;;;;4836567;29;20045;-82
2022/09/10 10:13:51;;;;;;;18.98;11.10;;;17.40;99.90;;;;;;4836338;29;20034;-82
2022/09/10 10:16:34;;;;;;;9.88;8.98;;;17.40;99.90;;;;;;4836453;29;20053;-81
2022/09/10 10:19:01;;;;;;;8.70;7.90;;;17.30;99.90;;;;;;4835567;29;20030;-82
2022/09/10 10:21:31;;;;;;;7.63;7.03;;;17.40;99.90;;;;;;4836264;29;20469;-82
2022/09/10 10:23:57;;;;;;;9.57;8.25;;;17.40;99.90;;;;;;4836209;29;20034;-82
2022/09/10 10:26:30;;;;;;;9.45;8.48;;;17.50;99.90;;;;;;4837790;29;20038;-82
2022/09/10 10:29:00;;;;;;;12.02;8.70;;;17.50;99.90;;;;;;4836118;29;20034;-82
2022/09/10 10:31:43;;;;;;;12.43;8.95;;;17.60;99.90;;;;;;4836023;29;20445;-82
2022/09/10 10:34:18;;;;;;;9.05;8.15;;;17.60;99.90;;;;;;4837329;29;20071;-82
2022/09/10 10:37:18;;;;;;;12.10;8.32;;;17.50;99.90;;;;;;4835744;29;20034;-82
2022/09/10 10:40:02;;;;;;;8.98;8.27;;;17.50;99.90;;;;;;4834332;29;20041;-82
2022/09/10 10:42:38;;;;;;;10.30;8.98;;;17.50;99.90;;;;;;4854185;29;20098;-82
2022/09/10 10:45:42;;;;;;;11.52;9.63;;;17.50;99.90;;;;;;4820926;29;20042;-82
2022/09/10 10:48:25;;;;;;;9.15;7.22;;;17.50;99.90;;;;;;4837154;29;20041;-81
2022/09/10 10:51:08;;;;;;;10.80;9.50;;;17.60;99.90;;;;;;4835808;29;20087;-82
2022/09/10 10:53:35;;;;;;;10.65;9.65;;;17.50;99.90;;;;;;4836991;29;20101;-82
2022/09/10 10:56:01;;;;;;;10.82;8.85;;;17.50;99.90;;;;;;4837044;29;20022;-82
2022/09/10 10:58:46;;;;;;;13.68;9.90;;;17.60;99.90;;;;;;4837151;29;20098;-82
2022/09/10 11:01:25;;;;;;;12.23;9.27;;;17.50;99.90;;;;;;4836796;29;20050;-82
2022/09/10 11:04:15;;;;;;;14.30;9.43;;;17.60;99.90;;;;;;4835371;29;20030;-82
2022/09/10 11:06:56;;;;;;;10.45;9.40;;;17.60;99.90;;;;;;4817522;29;20031;-82
2022/09/10 11:09:25;;;;;;;14.77;10.18;;;17.60;99.90;;;;;;4824897;29;20076;-82
2022/09/10 11:12:01;;;;;;;10.30;9.32;;;17.60;99.90;;;;;;4819917;29;20034;-82
2022/09/10 11:14:39;;;;;;;11.32;8.95;;;17.70;99.90;;;;;;4830704;29;20046;-81
2022/09/10 11:17:18;;;;;;;10.32;9.20;;;17.60;99.90;;;;;;4818737;29;20043;-82
2022/09/10 11:19:54;;;;;;;9.93;9.02;;;17.60;99.90;;;;;;4834647;29;20430;-81
2022/09/10 11:22:40;;;;;;;12.82;9.85;;;17.60;99.90;;;;;;4834891;29;20042;-82
2022/09/10 11:25:20;;;;;;;11.52;8.77;;;17.60;99.90;;;;;;4842478;29;20034;-82
2022/09/10 11:27:52;;;;;;;18.60;10.93;;;17.60;99.90;;;;;;4819522;29;20026;-82
2022/09/10 11:30:22;;;;;;;19.13;12.07;;;17.60;99.90;;;;;;4835157;29;20178;-81
2022/09/10 11:33:15;;;;;;;19.75;11.43;;;17.60;99.90;;;;;;4834961;29;20120;-81
2022/09/10 11:36:02;;;;;;;21.33;11.60;;;17.70;99.90;;;;;;4834669;29;20504;-81
2022/09/10 11:38:31;;;;;;;17.17;10.88;;;17.70;99.90;;;;;;4835912;29;20026;-81
2022/09/10 11:41:08;;;;;;;14.00;10.95;;;17.70;99.90;;;;;;4837728;29;20022;-81
2022/09/10 11:43:53;;;;;;;11.55;10.45;;;17.70;99.90;;;;;;4832231;29;20041;-81
2022/09/10 11:46:22;;;;;;;13.95;11.05;;;17.70;99.90;;;;;;4816781;29;20039;-80
2022/09/10 11:49:04;;;;;;;10.68;9.32;;;17.80;99.90;;;;;;4848049;29;20046;-81
2022/09/10 11:51:38;;;;;;;17.15;11.60;;;17.90;99.90;;;;;;4834930;29;20062;-81
2022/09/10 11:54:11;;;;;;;12.15;10.10;;;17.90;99.90;;;;;;4835126;29;20037;-81
2022/09/10 11:56:48;;;;;;;11.48;10.23;;;18.00;99.90;;;;;;4835287;29;20030;-81
2022/09/10 11:59:29;;;;;;;14.10;9.52;;;18.00;99.90;;;;;;4838732;29;20026;-81
2022/09/10 12:02:14;;;;;;;12.80;9.07;;;18.10;99.90;;;;;;4816640;29;20035;-81
2022/09/10 12:04:44;;;;;;;11.73;10.02;;;18.10;99.90;;;;;;4817854;29;20035;-82
2022/09/10 12:07:24;;;;;;;10.75;8.95;;;18.10;99.90;;;;;;4816947;29;20035;-81
2022/09/10 12:09:59;;;;;;;10.82;8.30;;;18.20;99.90;;;;;;4821562;29;20098;-82
2022/09/10 12:12:32;;;;;;;10.90;7.82;;;18.20;99.90;;;;;;4834894;29;20492;-82
2022/09/10 12:14:58;;;;;;;7.60;6.90;;;18.20;99.90;;;;;;4835962;29;20061;-82
2022/09/10 12:17:30;;;;;;;10.05;7.53;;;18.30;99.90;;;;;;4844660;29;20046;-81
2022/09/10 12:19:58;;;;;;;8.98;6.05;;;18.20;99.90;;;;;;4835205;29;20031;-81
2022/09/10 12:22:35;;;;;;;7.15;6.28;;;18.20;99.90;;;;;;4819369;29;20030;-81
2022/09/10 12:25:26;;;;;;;6.63;5.88;;;18.20;99.90;;;;;;4836101;29;20532;-81
2022/09/10 12:27:58;;;;;;;19.00;7.00;;;18.30;99.90;;;;;;4836518;29;20046;-81
2022/09/10 12:30:24;;;;;;;7.18;6.47;;;18.30;99.90;;;;;;4834933;29;20081;-81
2022/09/10 12:33:15;;;;;;;7.28;6.18;;;18.30;99.90;;;;;;4836118;29;20022;-81
2022/09/10 12:35:47;;;;;;;7.25;5.30;;;18.30;99.90;;;;;;4842498;29;20061;-81
2022/09/10 12:38:47;;;;;;;4.75;4.35;;;18.40;99.90;;;;;;4836156;29;20031;-82
2022/09/10 12:41:19;;;;;;;;;;;18.40;99.90;;;;;;4835836;29;20030;-81
2022/09/10 12:43:45;;;;;;;13.27;5.75;;;18.50;99.90;;;;;;4835517;29;19913;-81
2022/09/10 12:46:13;;;;;;;6.90;5.03;;;18.60;99.90;;;;;;4834558;29;20073;-81
2022/09/10 12:48:47;;;;;;;4.63;4.22;;;18.60;99.90;;;;;;4834046;29;20476;-81
2022/09/10 12:51:19;;;;;;;6.43;4.80;;;18.70;99.90;;;;;;4835345;29;20046;-81
2022/09/10 12:54:03;;;;;;;8.77;3.97;;;18.80;99.90;;;;;;4836941;29;20038;-81
2022/09/10 12:56:32;;;;;;;4.13;3.78;;;18.80;99.90;;;;;;4837749;29;20038;-81
2022/09/10 12:59:16;;;;;;;3.30;3.00;;;18.90;99.90;;;;;;4838844;29;20023;-81
2022/09/10 13:01:45;;;;;;;5.97;3.58;;;18.90;99.90;;;;;;4836973;29;20038;-81
2022/09/10 13:04:46;;;;;;;3.30;3.00;;;19.00;99.90;;;;;;4837223;29;20461;-81
2022/09/10 13:07:43;;;;;;;2.58;2.38;;;19.00;99.90;;;;;;4837163;29;20542;-81
2022/09/10 13:10:20;;;;;;;7.13;3.38;;;19.10;99.90;;;;;;4838685;29;20042;-81